createdAt,value
2023-02-18T00:01:26.215Z,1.70
2023-02-18T00:03:55.914Z,1.88
2023-02-18T00:06:26.633Z,2.35
2023-02-18T00:08:59.001Z,3.08
2023-02-18T00:11:28.703Z,2.95
2023-02-18T00:13:59.823Z,2.78
2023-02-18T00:16:33.069Z,1.90
2023-02-18T00:19:03.993Z,2.40
2023-02-18T00:21:34.070Z,2.72
2023-02-18T00:24:03.735Z,2.45
2023-02-18T00:26:33.533Z,3.10
2023-02-18T00:29:03.209Z,2.25
2023-02-18T00:31:37.456Z,2.05
2023-02-18T00:34:07.420Z,2.50
2023-02-18T00:36:37.682Z,1.77
2023-02-18T00:39:08.990Z,2.70
2023-02-18T00:41:38.739Z,2.05
2023-02-18T00:44:08.654Z,2.40
2023-02-18T00:46:41.258Z,2.40
2023-02-18T00:49:11.122Z,3.30
2023-02-18T00:51:40.735Z,3.10
2023-02-18T00:54:10.518Z,2.47
2023-02-18T00:56:40.151Z,2.90
2023-02-18T00:59:09.781Z,2.20
2023-02-18T01:01:42.008Z,2.50
2023-02-18T01:04:11.642Z,2.15
2023-02-18T01:06:41.456Z,1.70
2023-02-18T01:09:11.070Z,2.38
2023-02-18T01:11:40.753Z,2.00
2023-02-18T01:14:10.407Z,1.70
2023-02-18T01:16:42.665Z,2.08
2023-02-18T01:19:12.307Z,2.17
2023-02-18T01:21:42.128Z,1.70
2023-02-18T01:24:11.707Z,0.95
2023-02-18T01:26:41.532Z,1.60
2023-02-18T01:29:11.203Z,1.40
2023-02-18T01:31:44.004Z,2.00
2023-02-18T01:34:13.703Z,1.98
2023-02-18T01:36:43.349Z,2.38
2023-02-18T01:39:13.084Z,2.13
2023-02-18T01:41:42.768Z,1.60
2023-02-18T01:44:16.358Z,1.92
2023-02-18T01:46:51.199Z,2.15
2023-02-18T01:49:22.070Z,2.63
2023-02-18T01:51:52.999Z,1.85
2023-02-18T01:54:25.594Z,1.60
2023-02-18T01:56:58.204Z,1.80
2023-02-18T01:59:30.950Z,1.80
2023-02-18T02:02:03.238Z,0.82
2023-02-18T02:04:33.020Z,1.83
2023-02-18T02:07:02.713Z,1.38
2023-02-18T02:09:33.308Z,1.13
2023-02-18T02:12:11.961Z,0.77
2023-02-18T02:14:50.532Z,1.88
2023-02-18T02:17:27.144Z,1.77
2023-02-18T02:20:23.693Z,1.90
2023-02-18T02:23:12.722Z,1.40
2023-02-18T02:25:55.466Z,1.48
2023-02-18T02:28:35.577Z,1.35
2023-02-18T02:31:18.995Z,1.13
2023-02-18T02:34:10.404Z,1.98
2023-02-18T02:36:47.236Z,1.30
2023-02-18T02:39:21.284Z,0.95
2023-02-18T02:41:55.306Z,2.53
2023-02-18T02:44:29.318Z,1.70
2023-02-18T02:47:03.668Z,2.05
2023-02-18T02:49:38.597Z,1.58
2023-02-18T02:52:12.766Z,1.60
2023-02-18T02:54:42.465Z,1.42
2023-02-18T02:57:32.226Z,1.13
2023-02-18T03:00:15.476Z,1.40
2023-02-18T03:02:51.368Z,1.33
2023-02-18T03:05:26.627Z,0.70
2023-02-18T03:08:03.461Z,0.73
2023-02-18T03:10:39.643Z,1.10
2023-02-18T03:13:12.914Z,1.35
2023-02-18T03:15:52.033Z,1.35
2023-02-18T03:18:24.974Z,0.88
2023-02-18T03:20:56.836Z,0.55
2023-02-18T03:23:30.039Z,0.90
2023-02-18T03:26:00.145Z,0.95
2023-02-18T03:28:32.442Z,0.65
2023-02-18T03:31:10.994Z,1.42
2023-02-18T03:33:43.423Z,0.90
2023-02-18T03:36:13.227Z,1.10
2023-02-18T03:38:46.154Z,0.98
2023-02-18T03:41:15.945Z,0.65
2023-02-18T03:43:51.766Z,0.52
2023-02-18T03:46:24.137Z,0.73
2023-02-18T03:48:53.775Z,0.75
2023-02-18T03:51:24.340Z,0.70
2023-02-18T03:53:54.417Z,0.80
2023-02-18T03:56:24.085Z,1.10
2023-02-18T03:58:53.781Z,1.13
2023-02-18T04:01:26.193Z,0.93
2023-02-18T04:03:55.976Z,1.35
2023-02-18T04:06:25.646Z,0.80
2023-02-18T04:08:55.239Z,0.63
2023-02-18T04:11:24.973Z,1.00
2023-02-18T04:13:54.768Z,1.05
2023-02-18T04:16:27.055Z,0.77
2023-02-18T04:18:56.666Z,1.05
2023-02-18T04:21:26.308Z,1.05
2023-02-18T04:23:55.938Z,0.73
2023-02-18T04:26:25.565Z,0.63
2023-02-18T04:28:55.190Z,0.90
2023-02-18T04:31:27.540Z,1.15
2023-02-18T04:33:57.194Z,1.05
2023-02-18T04:36:26.753Z,0.98
2023-02-18T04:38:56.427Z,0.90
2023-02-18T04:41:26.060Z,0.65
2023-02-18T04:43:55.705Z,0.77
2023-02-18T04:46:28.049Z,0.77
2023-02-18T04:48:57.767Z,0.73
2023-02-18T04:51:27.396Z,0.38
2023-02-18T04:53:57.005Z,1.10
2023-02-18T04:56:26.659Z,1.42
2023-02-18T04:58:56.266Z,1.60
2023-02-18T05:01:28.489Z,1.63
2023-02-18T05:03:58.180Z,1.52
2023-02-18T05:06:27.933Z,2.13
2023-02-18T05:08:57.545Z,1.30
2023-02-18T05:11:27.143Z,1.98
2023-02-18T05:13:56.794Z,1.20
2023-02-18T05:16:29.239Z,1.50
2023-02-18T05:18:58.934Z,1.75
2023-02-18T05:21:28.609Z,1.77
2023-02-18T05:23:58.223Z,1.10
2023-02-18T05:26:27.807Z,1.10
2023-02-18T05:28:57.530Z,1.48
2023-02-18T05:31:30.470Z,0.93
2023-02-18T05:34:00.193Z,1.17
2023-02-18T05:36:29.781Z,1.35
2023-02-18T05:38:59.430Z,1.02
2023-02-18T05:41:29.059Z,0.88
2023-02-18T05:44:11.017Z,1.27
2023-02-18T05:46:43.327Z,1.35
2023-02-18T05:49:12.975Z,1.15
2023-02-18T05:51:42.585Z,0.73
2023-02-18T05:54:12.201Z,0.70
2023-02-18T05:56:41.793Z,1.10
2023-02-18T05:59:11.436Z,1.15
2023-02-18T06:01:43.733Z,1.13
2023-02-18T06:04:13.699Z,0.90
2023-02-18T06:06:43.599Z,1.13
2023-02-18T06:09:13.371Z,1.10
2023-02-18T06:11:43.239Z,1.23
2023-02-18T06:14:13.143Z,0.70
2023-02-18T06:16:45.369Z,1.23
2023-02-18T06:19:14.961Z,0.60
2023-02-18T06:21:44.557Z,0.88
2023-02-18T06:24:14.203Z,1.20
2023-02-18T06:26:43.844Z,1.33
2023-02-18T06:29:13.474Z,0.80
2023-02-18T06:31:45.822Z,1.33
2023-02-18T06:34:15.456Z,0.43
2023-02-18T06:36:45.077Z,1.02
2023-02-18T06:39:14.649Z,0.70
2023-02-18T06:41:44.367Z,0.47
2023-02-18T06:44:15.430Z,0.70
2023-02-18T06:46:48.012Z,0.80
2023-02-18T06:49:17.636Z,0.60
2023-02-18T06:51:47.229Z,0.50
2023-02-18T06:54:16.828Z,1.05
2023-02-18T06:56:46.384Z,1.17
2023-02-18T06:59:16.100Z,0.73
2023-02-18T07:01:48.338Z,0.80
2023-02-18T07:04:18.051Z,0.70
2023-02-18T07:06:47.626Z,1.25
2023-02-18T07:09:17.207Z,0.75
2023-02-18T07:11:46.915Z,1.65
2023-02-18T07:14:16.608Z,0.98
2023-02-18T07:16:48.922Z,0.88
2023-02-18T07:19:18.535Z,0.85
2023-02-18T07:21:48.147Z,1.08
2023-02-18T07:24:17.784Z,0.90
2023-02-18T07:26:47.389Z,1.50
2023-02-18T07:29:16.959Z,0.88
2023-02-18T07:31:49.270Z,0.75
2023-02-18T07:34:19.018Z,1.17
2023-02-18T07:36:49.060Z,0.50
2023-02-18T07:39:20.861Z,1.15
2023-02-18T07:41:50.660Z,0.75
2023-02-18T07:44:20.201Z,1.10
2023-02-18T07:46:53.380Z,0.88
2023-02-18T07:49:22.978Z,0.90
2023-02-18T07:51:53.202Z,0.85
2023-02-18T07:54:22.813Z,1.02
2023-02-18T07:56:52.502Z,0.52
2023-02-18T07:59:22.076Z,0.65
2023-02-18T08:01:54.338Z,1.00
2023-02-18T08:04:23.988Z,0.85
2023-02-18T08:06:54.008Z,0.90
2023-02-18T08:09:23.619Z,1.10
2023-02-18T08:11:53.268Z,1.00
2023-02-18T08:14:22.925Z,1.27
2023-02-18T08:16:55.242Z,1.48
2023-02-18T08:19:24.883Z,1.80
2023-02-18T08:21:54.770Z,1.60
2023-02-18T08:24:24.368Z,0.98
2023-02-18T08:27:00.680Z,1.20
2023-02-18T08:29:30.638Z,1.33
2023-02-18T08:32:15.052Z,2.95
2023-02-18T08:34:47.286Z,1.52
2023-02-18T08:37:16.909Z,1.40
2023-02-18T08:39:46.478Z,0.93
2023-02-18T08:42:16.068Z,1.10
2023-02-18T08:44:45.778Z,1.85
2023-02-18T08:48:18.202Z,1.30
2023-02-18T08:50:07.866Z,1.65
2023-02-18T08:52:37.511Z,1.80
2023-02-18T08:55:07.480Z,1.17
2023-02-18T08:57:37.127Z,1.65
2023-02-18T09:00:07.215Z,1.38
2023-02-18T09:02:36.811Z,1.85
2023-02-18T09:05:09.785Z,1.77
2023-02-18T09:07:39.616Z,1.02
2023-02-18T09:10:10.318Z,1.58
2023-02-18T09:12:40.038Z,2.13
2023-02-18T09:15:13.295Z,1.75
2023-02-18T09:17:43.039Z,1.50
2023-02-18T09:20:15.777Z,1.90
2023-02-18T09:22:45.479Z,1.63
2023-02-18T09:25:15.320Z,2.10
2023-02-18T09:27:44.953Z,1.90
2023-02-18T09:30:14.941Z,5.97
2023-02-18T09:32:44.619Z,2.20
2023-02-18T09:35:17.004Z,1.92
2023-02-18T09:37:46.597Z,2.00
2023-02-18T09:40:24.152Z,1.83
2023-02-18T09:42:53.819Z,3.00
2023-02-18T09:45:23.632Z,1.95
2023-02-18T09:47:53.638Z,2.22
2023-02-18T09:50:27.557Z,1.67
2023-02-18T09:52:57.895Z,2.33
2023-02-18T09:55:30.368Z,1.88
2023-02-18T09:58:01.300Z,1.92
2023-02-18T10:00:33.481Z,2.13
2023-02-18T10:03:05.421Z,1.98
2023-02-18T10:05:39.109Z,1.80
2023-02-18T10:08:10.039Z,2.35
2023-02-18T10:10:42.892Z,8.52
2023-02-18T10:13:16.060Z,2.55
2023-02-18T10:15:47.407Z,2.03
2023-02-18T10:18:24.797Z,2.08
2023-02-18T10:21:00.654Z,2.38
2023-02-18T10:23:32.349Z,2.15
2023-02-18T10:26:02.445Z,8.85
2023-02-18T10:28:32.708Z,2.45
2023-02-18T10:31:04.449Z,2.45
2023-02-18T10:33:38.523Z,1.95
2023-02-18T10:36:26.625Z,1.90
2023-02-18T10:39:10.586Z,1.88
2023-02-18T10:41:47.737Z,2.60
2023-02-18T10:44:20.671Z,4.40
2023-02-18T10:46:54.354Z,2.20
2023-02-18T10:49:32.157Z,2.42
2023-02-18T10:52:06.460Z,2.20
2023-02-18T10:54:51.542Z,3.65
2023-02-18T10:57:21.719Z,4.30
2023-02-18T10:59:58.810Z,2.33
2023-02-18T11:02:31.003Z,2.70
2023-02-18T11:05:02.025Z,5.75
2023-02-18T11:07:36.618Z,2.50
2023-02-18T11:10:13.374Z,8.55
2023-02-18T11:12:47.496Z,5.97
2023-02-18T11:15:22.064Z,1.98
2023-02-18T11:17:54.071Z,2.70
2023-02-18T11:20:26.333Z,2.42
2023-02-18T11:23:00.100Z,2.83
2023-02-18T11:25:33.258Z,2.75
2023-02-18T11:28:04.203Z,3.28
2023-02-18T11:30:35.879Z,2.88
2023-02-18T11:33:09.730Z,3.08
2023-02-18T11:35:40.612Z,2.30
2023-02-18T11:38:21.306Z,2.88
2023-02-18T11:40:56.562Z,10.77
2023-02-18T11:43:28.038Z,8.63
2023-02-18T11:46:11.392Z,5.80
2023-02-18T11:48:41.352Z,20.42
2023-02-18T11:51:18.243Z,4.82
2023-02-18T11:54:05.724Z,9.02
2023-02-18T11:56:38.981Z,11.63
2023-02-18T11:59:08.818Z,4.18
2023-02-18T12:01:41.105Z,9.68
2023-02-18T12:04:12.437Z,9.98
2023-02-18T12:06:45.350Z,7.25
2023-02-18T12:09:21.672Z,6.82
2023-02-18T12:11:55.725Z,5.47
2023-02-18T12:14:26.030Z,6.53
2023-02-18T12:17:04.820Z,6.07
2023-02-18T12:19:42.902Z,4.70
2023-02-18T12:22:17.866Z,2.63
2023-02-18T12:24:53.942Z,4.43
2023-02-18T12:27:29.377Z,7.22
2023-02-18T12:30:05.663Z,2.30
2023-02-18T12:32:40.388Z,3.47
2023-02-18T12:35:27.871Z,2.17
2023-02-18T12:38:06.977Z,2.80
2023-02-18T12:40:43.352Z,9.02
2023-02-18T12:43:19.485Z,2.20
2023-02-18T12:45:57.523Z,7.05
2023-02-18T12:48:41.322Z,2.90
2023-02-18T12:51:17.728Z,3.42
2023-02-18T12:54:06.907Z,5.22
2023-02-18T12:56:42.243Z,2.15
2023-02-18T12:59:17.117Z,5.95
2023-02-18T13:01:51.914Z,4.72
2023-02-18T13:04:36.820Z,2.75
2023-02-18T13:07:21.492Z,7.70
2023-02-18T13:10:00.657Z,2.55
2023-02-18T13:12:33.282Z,3.15
2023-02-18T13:15:06.527Z,3.33
2023-02-18T13:17:38.398Z,7.57
2023-02-18T13:20:10.229Z,14.50
2023-02-18T13:22:40.847Z,14.88
2023-02-18T13:25:15.546Z,10.18
2023-02-18T13:27:48.596Z,8.02
2023-02-18T13:30:26.670Z,9.80
2023-02-18T13:33:03.498Z,4.82
2023-02-18T13:35:37.618Z,2.72
2023-02-18T13:38:15.587Z,3.83
2023-02-18T13:40:45.623Z,2.45
2023-02-18T13:43:22.536Z,3.75
2023-02-18T13:46:07.512Z,1.50
2023-02-18T13:48:43.421Z,4.03
2023-02-18T13:51:14.088Z,2.17
2023-02-18T13:53:46.274Z,1.50
2023-02-18T13:56:23.616Z,2.10
2023-02-18T13:58:55.168Z,4.72
2023-02-18T14:01:26.549Z,6.88
2023-02-18T14:04:00.171Z,1.70
2023-02-18T14:06:31.323Z,2.55
2023-02-18T14:09:21.470Z,2.33
2023-02-18T14:11:51.615Z,2.05
2023-02-18T14:14:36.079Z,3.83
2023-02-18T14:17:31.876Z,4.40
2023-02-18T14:20:16.283Z,2.35
2023-02-18T14:22:50.709Z,2.42
2023-02-18T14:25:25.750Z,4.63
2023-02-18T14:27:55.931Z,2.90
2023-02-18T14:30:28.546Z,1.95
2023-02-18T14:33:00.214Z,3.35
2023-02-18T14:35:34.187Z,4.93
2023-02-18T14:38:16.036Z,7.18
2023-02-18T14:40:59.057Z,6.82
2023-02-18T14:43:46.456Z,3.65
2023-02-18T14:46:28.209Z,3.03
2023-02-18T14:49:09.002Z,2.53
2023-02-18T14:51:38.871Z,3.67
2023-02-18T14:54:15.775Z,2.83
2023-02-18T14:56:53.763Z,2.70
2023-02-18T14:59:23.928Z,2.67
2023-02-18T15:01:56.335Z,5.65
2023-02-18T15:04:27.670Z,3.88
2023-02-18T15:07:04.386Z,2.30
2023-02-18T15:09:36.672Z,2.90
2023-02-18T15:12:08.206Z,8.45
2023-02-18T15:14:39.377Z,5.72
2023-02-18T15:17:10.414Z,2.30
2023-02-18T15:19:42.968Z,6.50
2023-02-18T15:22:18.462Z,4.55
2023-02-18T15:24:51.171Z,2.00
2023-02-18T15:27:21.974Z,3.00
2023-02-18T15:29:52.930Z,7.18
2023-02-18T15:32:24.052Z,2.85
2023-02-18T15:34:54.679Z,4.05
2023-02-18T15:37:24.277Z,2.95
2023-02-18T15:39:56.886Z,3.47
2023-02-18T15:42:29.155Z,2.75
2023-02-18T15:45:00.178Z,2.80
2023-02-18T15:47:30.000Z,4.63
2023-02-18T15:50:01.844Z,4.20
2023-02-18T15:52:33.491Z,4.03
2023-02-18T15:55:07.567Z,4.95
2023-02-18T15:57:38.111Z,5.03
2023-02-18T16:00:13.879Z,4.22
2023-02-18T16:02:53.987Z,4.72
2023-02-18T16:05:27.214Z,4.13
2023-02-18T16:08:00.493Z,6.13
2023-02-18T16:10:43.050Z,4.72
2023-02-18T16:13:15.875Z,4.35
2023-02-18T16:15:47.015Z,4.40
2023-02-18T16:18:28.204Z,4.53
2023-02-18T16:20:59.550Z,4.22
2023-02-18T16:23:30.375Z,3.80
2023-02-18T16:26:12.132Z,3.67
2023-02-18T16:28:44.861Z,3.83
2023-02-18T16:31:16.725Z,5.30
2023-02-18T16:33:46.356Z,4.30
2023-02-18T16:36:18.086Z,4.47
2023-02-18T16:38:48.252Z,9.02
2023-02-18T16:41:20.968Z,3.83
2023-02-18T16:43:50.745Z,4.22
2023-02-18T16:46:21.034Z,4.55
2023-02-18T16:48:55.015Z,4.00
2023-02-18T16:51:25.970Z,5.13
2023-02-18T16:53:55.730Z,4.90
2023-02-18T16:56:29.618Z,5.25
2023-02-18T16:58:59.270Z,3.55
2023-02-18T17:01:30.132Z,4.30
2023-02-18T17:04:00.451Z,3.40
2023-02-18T17:06:30.489Z,4.28
2023-02-18T17:09:00.147Z,4.82
2023-02-18T17:11:33.436Z,4.63
2023-02-18T17:14:05.241Z,4.43
2023-02-18T17:16:35.013Z,4.15
2023-02-18T17:19:04.733Z,5.90
2023-02-18T17:21:34.321Z,3.22
2023-02-18T17:24:03.900Z,3.50
2023-02-18T17:26:36.111Z,3.00
2023-02-18T17:29:05.785Z,2.50
2023-02-18T17:31:37.715Z,2.90
2023-02-18T17:34:08.821Z,3.20
2023-02-18T17:36:39.762Z,3.80
2023-02-18T17:39:13.303Z,3.80
2023-02-18T17:41:45.658Z,3.83
2023-02-18T17:44:18.026Z,2.38
2023-02-18T17:46:49.805Z,3.03
2023-02-18T17:49:19.396Z,3.10
2023-02-18T17:51:49.217Z,3.75
2023-02-18T17:54:19.889Z,4.10
2023-02-18T17:56:52.096Z,3.42
2023-02-18T17:59:21.666Z,3.20
2023-02-18T18:01:51.404Z,2.90
2023-02-18T18:04:21.786Z,3.58
2023-02-18T18:06:51.455Z,4.43
2023-02-18T18:09:21.057Z,2.72
2023-02-18T18:11:53.718Z,3.58
2023-02-18T18:14:23.288Z,2.70
2023-02-18T18:16:52.942Z,2.13
2023-02-18T18:19:22.601Z,3.78
2023-02-18T18:21:53.842Z,1.92
2023-02-18T18:24:23.435Z,1.75
2023-02-18T18:26:55.699Z,2.00
2023-02-18T18:29:25.327Z,2.70
2023-02-18T18:31:55.006Z,2.55
2023-02-18T18:34:24.597Z,3.03
2023-02-18T18:36:54.222Z,2.13
2023-02-18T18:39:24.027Z,2.45
2023-02-18T18:41:56.408Z,2.30
2023-02-18T18:44:26.046Z,2.05
2023-02-18T18:46:55.629Z,1.77
2023-02-18T18:49:25.278Z,1.30
2023-02-18T18:51:56.832Z,2.40
2023-02-18T18:54:26.512Z,2.38
2023-02-18T18:56:58.714Z,2.65
2023-02-18T18:59:28.394Z,2.30
2023-02-18T19:01:57.991Z,4.13
2023-02-18T19:04:27.882Z,3.15
2023-02-18T19:06:57.479Z,1.98
2023-02-18T19:09:27.156Z,1.98
2023-02-18T19:11:59.461Z,1.65
2023-02-18T19:14:29.083Z,1.67
2023-02-18T19:16:59.140Z,1.58
2023-02-18T19:19:31.041Z,1.98
2023-02-18T19:22:00.660Z,1.80
2023-02-18T19:24:30.231Z,1.65
2023-02-18T19:27:02.434Z,2.35
2023-02-18T19:29:32.031Z,1.92
2023-02-18T19:32:01.721Z,1.70
2023-02-18T19:34:31.734Z,1.50
2023-02-18T19:37:01.927Z,2.08
2023-02-18T19:39:31.555Z,2.08
2023-02-18T19:42:03.753Z,1.25
2023-02-18T19:44:35.188Z,1.85
2023-02-18T19:47:04.787Z,1.90
2023-02-18T19:49:34.377Z,1.70
2023-02-18T19:52:04.616Z,1.73
2023-02-18T19:54:34.613Z,1.58
2023-02-18T19:57:07.449Z,2.17
2023-02-18T19:59:37.296Z,1.52
2023-02-18T20:02:07.020Z,1.10
2023-02-18T20:04:36.826Z,1.13
2023-02-18T20:07:06.506Z,2.72
2023-02-18T20:09:36.087Z,4.85
2023-02-18T20:12:10.131Z,1.80
2023-02-18T20:14:39.780Z,1.33
2023-02-18T20:17:10.326Z,2.00
2023-02-18T20:19:40.246Z,3.15
2023-02-18T20:22:10.484Z,1.67
2023-02-18T20:24:40.526Z,1.85
2023-02-18T20:27:13.042Z,1.73
2023-02-18T20:29:42.718Z,1.98
2023-02-18T20:32:12.409Z,1.70
2023-02-18T20:34:42.023Z,1.75
2023-02-18T20:37:11.582Z,1.48
2023-02-18T20:39:41.177Z,1.70
2023-02-18T20:42:16.734Z,2.10
2023-02-18T20:44:46.855Z,1.30
2023-02-18T20:47:16.485Z,1.08
2023-02-18T20:49:46.939Z,0.98
2023-02-18T20:52:16.641Z,1.60
2023-02-18T20:54:46.261Z,1.80
2023-02-18T20:57:18.572Z,2.10
2023-02-18T20:59:48.194Z,1.38
2023-02-18T21:02:17.977Z,1.77
2023-02-18T21:04:47.911Z,1.83
2023-02-18T21:07:17.517Z,2.05
2023-02-18T21:09:47.122Z,1.95
2023-02-18T21:12:19.401Z,1.85
2023-02-18T21:14:49.056Z,1.70
2023-02-18T21:17:18.744Z,1.75
2023-02-18T21:19:48.385Z,1.10
2023-02-18T21:22:17.998Z,1.20
2023-02-18T21:24:47.635Z,2.33
2023-02-18T21:27:19.997Z,1.40
2023-02-18T21:29:49.600Z,1.67
2023-02-18T21:32:19.442Z,0.82
2023-02-18T21:34:49.122Z,1.20
2023-02-18T21:37:18.669Z,1.50
2023-02-18T21:39:48.274Z,1.30
2023-02-18T21:42:20.497Z,1.67
2023-02-18T21:44:50.183Z,2.00
2023-02-18T21:47:19.777Z,1.65
2023-02-18T21:49:49.375Z,1.80
2023-02-18T21:52:19.016Z,2.63
2023-02-18T21:54:49.048Z,1.88
2023-02-18T21:57:22.813Z,2.08
2023-02-18T21:59:52.426Z,1.77
2023-02-18T22:02:22.935Z,1.60
2023-02-18T22:04:53.101Z,2.42
2023-02-18T22:07:23.531Z,1.15
2023-02-18T22:09:53.922Z,2.13
2023-02-18T22:12:26.508Z,2.10
2023-02-18T22:14:56.059Z,1.70
2023-02-18T22:17:26.164Z,1.50
2023-02-18T22:19:55.768Z,1.73
2023-02-18T22:22:25.362Z,1.90
2023-02-18T22:24:54.948Z,1.90
2023-02-18T22:27:27.309Z,1.10
2023-02-18T22:29:58.306Z,1.20
2023-02-18T22:32:29.256Z,2.25
2023-02-18T22:34:58.986Z,1.42
2023-02-18T22:37:28.632Z,1.30
2023-02-18T22:39:58.286Z,2.08
2023-02-18T22:42:30.594Z,1.10
2023-02-18T22:45:03.886Z,1.13
2023-02-18T22:47:33.486Z,1.60
2023-02-18T22:50:03.221Z,1.05
2023-02-18T22:52:33.250Z,1.33
2023-02-18T22:55:02.873Z,1.50
2023-02-18T22:57:35.082Z,1.48
2023-02-18T23:00:06.010Z,1.20
2023-02-18T23:02:35.832Z,1.60
2023-02-18T23:05:05.504Z,1.40
2023-02-18T23:07:35.093Z,1.63
2023-02-18T23:10:04.719Z,1.80
2023-02-18T23:12:36.940Z,1.52
2023-02-18T23:15:06.690Z,1.98
2023-02-18T23:17:36.278Z,2.00
2023-02-18T23:20:05.885Z,2.03
2023-02-18T23:22:35.941Z,2.05
2023-02-18T23:25:05.813Z,2.38
2023-02-18T23:27:37.997Z,2.60
2023-02-18T23:30:07.944Z,2.90
2023-02-18T23:32:39.297Z,2.70
2023-02-18T23:35:09.286Z,2.85
2023-02-18T23:37:52.038Z,3.45
2023-02-18T23:40:21.738Z,3.03
2023-02-18T23:42:55.531Z,2.60
2023-02-18T23:45:25.288Z,1.17
2023-02-18T23:47:54.871Z,1.48
2023-02-18T23:50:24.755Z,1.35
2023-02-18T23:52:54.357Z,0.80
2023-02-18T23:55:23.957Z,1.00
2023-02-18T23:57:56.178Z,1.40
